Data for 11/25/2008

Time Sea-Level Adjusted Pressure Absolute Pressure Temperature Relative Humidity Dew Point   
(mb) (inHg) (mb) (inHg) (C) (F) (%) (C) (F)
00:05 1022 30.18 852 25.16 0.5 32.9 44 -10.4 13.4
00:10 1022 30.18 852 25.16 -0 31.9 45 -10.7 12.7
00:15 1022 30.18 851 25.13 -0.3 31.5 45 -10.9 12.4
00:20 1022 30.18 851 25.13 -0.4 31.3 46 -10.7 12.8
00:25 1022 30.18 851 25.13 -0.5 31.1 47 -10.5 13.1
00:30 1022 30.18 851 25.13 -0.6 30.9 49 -10.1 13.8
00:35 1022 30.18 851 25.13 -0.7 30.7 48 -10.5 13.2
00:40 1022 30.18 851 25.13 -0.9 30.4 49 -10.4 13.2
00:45 1022 30.18 851 25.13 -0.6 30.9 45 -11 12.2
00:50 1022 30.18 851 25.13 -0.2 31.7 44 -10.9 12.4
00:55 1022 30.18 851 25.13 0 32.1 44 -10.9 12.3
01:00 1022 30.18 851 25.13 0.1 32.2 46 -10.3 13.5
01:05 1022 30.18 851 25.13 0.1 32.3 43 -11.1 12
01:10 1022 30.18 851 25.13 -0.2 31.6 51 -9.3 15.3
01:15 1022 30.18 851 25.13 -1.2 29.9 51 -10 14
01:20 1022 30.18 851 25.13 -1.3 29.7 52 -9.9 14.2
01:25 1022 30.18 851 25.13 -1.2 29.9 51 -10 14
01:30 1022 30.18 851 25.13 -1.1 30.1 50 -10.3 13.5
01:35 1022 30.18 851 25.13 -0.8 30.6 48 -10.4 13.2
01:40 1022 30.18 851 25.13 -0.7 30.8 49 -10 14
01:45 1022 30.18 851 25.13 -0.8 30.5 45 -11.4 11.5
01:50 1022 30.18 851 25.13 -0.3 31.4 43 -11.4 11.5
01:55 1022 30.18 851 25.13 -0.3 31.4 44 -11.3 11.7
02:00 1022 30.18 851 25.13 -0.6 31 44 -11.3 11.7
02:05 1022 30.18 851 25.13 -0.9 30.3 47 -10.9 12.3
02:10 1022 30.18 851 25.13 -1.4 29.4 48 -11.2 11.9
02:15 1022 30.18 851 25.13 -1.5 29.4 47 -11.3 11.6
02:20 1022 30.18 851 25.13 -1.3 29.7 46 -11.4 11.5
02:25 1022 30.18 851 25.13 -1.1 29.9 45 -11.6 11.2
02:30 1022 30.18 851 25.13 -1.3 29.7 46 -11.4 11.5
02:35 1022 30.18 851 25.13 -1.4 29.5 46 -11.7 11
02:40 1022 30.18 851 25.13 -1 30.3 44 -11.7 11
02:45 1022 30.18 851 25.13 -1 30.2 45 -11.6 11.2
02:50 1022 30.18 851 25.13 -1.4 29.5 46 -11.5 11.4
02:55 1022 30.18 851 25.13 -1.6 29.2 46 -11.8 10.8
03:00 1022 30.18 851 25.13 -1.5 29.2 46 -11.6 11.1
03:05 1022 30.18 851 25.13 -1.6 29.2 47 -11.5 11.3
03:10 1022 30.18 851 25.13 -1.4 29.5 46 -11.6 11.1
03:15 1022 30.18 851 25.13 -0.9 30.4 43 -12 10.4
03:20 1022 30.18 851 25.13 -0.6 30.9 43 -11.6 11.1
03:25 1022 30.18 851 25.13 -0.8 30.5 44 -11.6 11.1
03:30 1022 30.18 851 25.13 -1.1 30 45 -11.6 11.1
03:35 1022 30.18 851 25.13 -1.2 29.9 46 -11.5 11.3
03:40 1022 30.18 851 25.13 -1.3 29.6 46 -11.5 11.3
03:45 1022 30.18 851 25.13 -1.6 29 47 -11.4 11.5
03:50 1022 30.18 851 25.13 -2 28.4 48 -11.5 11.3
03:55 1022 30.18 851 25.13 -2.3 27.8 49 -11.7 11
04:00 1022 30.18 851 25.13 -2.2 28.1 48 -11.7 11
04:05 1022 30.18 851 25.13 -2.1 28.3 48 -11.7 11
04:10 1022 30.18 851 25.13 -1.9 28.6 47 -11.7 10.9
04:15 1022 30.18 851 25.13 -1.5 29.4 45 -11.8 10.7
04:20 1022 30.18 851 25.13 -1.3 29.6 46 -11.6 11.1
04:25 1022 30.18 851 25.13 -0.9 30.3 44 -11.6 11.1
04:30 1022 30.18 851 25.13 -0.7 30.8 43 -11.8 10.8
04:35 1022 30.18 851 25.13 -0.7 30.7 47 -10.7 12.8
04:40 1022 30.18 851 25.13 -1.2 29.8 46 -11.6 11.2
04:45 1022 30.18 851 25.13 -1.7 28.9 49 -11.2 11.9
04:50 1022 30.18 851 25.13 -2 28.3 53 -10.4 13.4
04:55 1022 30.18 851 25.13 -2.2 28 54 -10.4 13.3
05:00 1022 30.18 851 25.13 -2 28.3 54 -10.1 13.9
05:05 1022 30.18 851 25.13 -2.1 28.1 54 -10.2 13.6
05:10 1022 30.18 851 25.13 -2 28.3 52 -10.6 12.9
05:15 1022 30.18 851 25.13 -1.7 28.9 52 -10.2 13.6
05:20 1022 30.18 851 25.13 -2.4 27.7 55 -10.1 13.8
05:25 1022 30.18 851 25.13 -3 26.7 57 -10.3 13.5
05:30 1022 30.18 851 25.13 -3.6 25.6 59 -10.6 13
05:35 1022 30.18 851 25.13 -3.2 26.2 57 -10.6 13
05:40 1022 30.18 851 25.13 -2.6 27.4 55 -10.4 13.3
05:45 1022 30.18 851 25.13 -2.5 27.4 54 -10.7 12.8
05:50 1022 30.18 851 25.13 -2.6 27.2 56 -10.2 13.7
05:55 1022 30.18 851 25.13 -3.1 26.3 56 -10.7 12.8
06:00 1022 30.18 851 25.13 -3 26.7 56 -10.5 13.2
06:05 1022 30.18 851 25.13 -3.4 25.9 60 -10.1 13.8
06:10 1022 30.18 851 25.13 -3.8 25.1 60 -10.5 13.2
06:15 1022 30.18 851 25.13 -3.6 25.5 60 -10.3 13.4
06:20 1022 30.18 851 25.13 -3.4 25.8 58 -10.5 13.2
06:25 1022 30.18 851 25.13 -3.3 26 58 -10.5 13.1
06:30 1022 30.18 851 25.13 -2.9 26.7 56 -10.5 13
06:35 1022 30.18 851 25.13 -2.9 26.7 55 -10.8 12.6
06:40 1022 30.18 851 25.13 -3.2 26.2 58 -10.3 13.5
06:45 1022 30.18 851 25.13 -4 24.8 62 -10.2 13.7
06:50 1022 30.18 851 25.13 -4 24.8 60 -10.8 12.6
06:55 1022 30.18 851 25.13 -3.4 25.8 57 -10.7 12.7
07:00 1022 30.18 851 25.13 -2.7 27.1 52 -11.2 11.8
07:05 1022 30.18 851 25.13 -2.3 27.9 51 -11 12.1
07:10 1022 30.18 851 25.13 -2.4 27.7 52 -11 12.3
07:15 1022 30.18 851 25.13 -2.4 27.7 51 -11.2 11.9
07:20 1022 30.18 851 25.13 -1.9 28.5 54 -10.1 13.8
07:25 1022 30.18 851 25.13 -1.7 29 52 -10.2 13.7
07:30 1022 30.18 851 25.13 -1.9 28.5 55 -9.7 14.5
07:35 1022 30.18 851 25.13 -2.4 27.7 58 -9.7 14.6
07:40 1022 30.18 851 25.13 -2.8 26.9 61 -9.3 15.2
07:45 1022 30.18 851 25.13 -3.1 26.4 62 -9.4 15
07:50 1022 30.18 852 25.16 -3.8 25.1 63 -9.9 14.2
07:55 1022 30.18 852 25.16 -3.6 25.4 62 -10 14
08:00 1022 30.18 852 25.16 -3.4 25.9 62 -9.7 14.5
08:05 1022 30.18 852 25.16 -3.4 25.8 59 -10.3 13.4
08:10 1022 30.18 852 25.16 -3 26.7 59 -9.9 14.2
08:15 1023 30.21 852 25.16 -3.2 26.2 61 -9.8 14.4
08:20 1022 30.18 852 25.16 -3.1 26.5 56 -10.6 13
08:25 1022 30.18 852 25.16 -2.3 27.9 53 -10.6 12.8
08:30 1022 30.18 852 25.16 -1.9 28.6 51 -10.7 12.7
08:35 1022 30.18 852 25.16 -1.8 28.7 51 -10.6 13
08:40 1022 30.18 852 25.16 -1.9 28.6 50 -10.9 12.4
08:45 1022 30.18 851 25.13 -1.8 28.8 48 -11.4 11.5
08:50 1022 30.18 851 25.13 -1.8 28.8 49 -11.1 12
08:55 1022 30.18 851 25.13 -1.7 29 47 -11.5 11.2
09:00 1022 30.18 851 25.13 -1.1 30 45 -11.6 11
09:05 1022 30.18 851 25.13 -0.7 30.7 45 -11.2 11.8
09:10 1022 30.18 851 25.13 -0.5 31 46 -10.9 12.4
09:15 1022 30.18 851 25.13 -0.5 31.2 49 -10 14
09:20 1022 30.18 851 25.13 -0.3 31.4 43 -11.3 11.6
09:25 1022 30.18 851 25.13 0.3 32.5 44 -10.6 13
09:30 1022 30.18 851 25.13 0.5 32.9 48 -9.4 15.2
09:35 1022 30.18 851 25.13 0.6 33.1 48 -9.3 15.3
09:40 1022 30.18 851 25.13 0.6 33.1 49 -8.8 16.1
09:45 1022 30.18 851 25.13 1.2 34.2 47 -9 15.8
09:50 1022 30.18 852 25.16 2 35.5 44 -9 15.8
09:55 1022 30.18 852 25.16 2.9 37.2 41 -9.3 15.3
10:00 1022 30.18 852 25.16 3.2 37.7 40 -9.1 15.7
10:05 1022 30.18 852 25.16 3.4 38.1 39 -9.3 15.2
10:10 1022 30.18 852 25.16 3.8 38.9 38 -9.3 15.3
10:15 1022 30.18 851 25.13 4.1 39.5 38 -9.1 15.6
10:20 1022 30.18 851 25.13 4.2 39.6 38 -8.8 16.1
10:25 1022 30.18 852 25.16 4.6 40.2 36 -9.1 15.6
10:30 1022 30.18 852 25.16 4.6 40.3 35 -9.4 15
10:35 1022 30.18 852 25.16 4.8 40.6 36 -9 15.8
10:40 1022 30.18 852 25.16 5 41 34 -9.4 15
10:45 1022 30.18 852 25.16 4.8 40.6 38 -8.5 16.6
10:50 1022 30.18 852 25.16 4.3 39.8 40 -8 17.5
10:55 1022 30.18 852 25.16 4.4 39.9 38 -8.9 16
11:00 1022 30.18 851 25.13 4 39.2 40 -8.4 16.9
11:05 1022 30.18 851 25.13 4 39.2 40 -8.4 16.8
11:10 1022 30.18 851 25.13 3.7 38.6 41 -8.5 16.8
11:15 1022 30.18 851 25.13 3.5 38.4 41 -8.6 16.6
11:20 1022 30.18 851 25.13 3.5 38.4 43 -7.9 17.8
11:25 1022 30.18 851 25.13 3.6 38.5 42 -8.1 17.5
11:30 1022 30.18 851 25.13 3.7 38.6 41 -8.3 17.1
11:35 1022 30.18 851 25.13 4 39.2 43 -7.5 18.6
11:40 1022 30.18 851 25.13 4.7 40.5 41 -7.5 18.6
11:45 1022 30.18 851 25.13 5.5 41.8 38 -7.8 18
11:50 1022 30.18 851 25.13 5.2 41.3 38 -8 17.6
11:55 1022 30.18 851 25.13 4.8 40.6 39 -8 17.5
12:00 1022 30.18 851 25.13 4.8 40.6 36 -8.9 16
12:05 1022 30.18 851 25.13 4.4 39.9 37 -9 15.8
12:10 1022 30.18 851 25.13 4.3 39.7 38 -9 15.9
12:15 1021 30.15 851 25.13 4.5 40.1 37 -8.9 16
12:20 1021 30.15 851 25.13 4.5 40.2 37 -8.8 16.1
12:25 1021 30.15 851 25.13 4.8 40.6 38 -8.3 17
12:30 1021 30.15 851 25.13 5.2 41.4 35 -9 15.9
12:35 1021 30.15 850 25.1 5.6 42.2 35 -8.7 16.3
12:40 1021 30.15 850 25.1 6.5 43.6 35 -7.9 17.8
12:45 1021 30.15 850 25.1 6.4 43.6 35 -7.8 17.9
12:50 1021 30.15 850 25.1 6.4 43.6 37 -7.1 19.2
12:55 1021 30.15 850 25.1 6.7 44 36 -7.5 18.5
13:00 1021 30.15 850 25.1 6.7 44 34 -8.3 17.1
13:05 1021 30.15 850 25.1 6.6 43.9 33 -8.4 16.8
13:10 1021 30.15 850 25.1 7.5 45.5 30 -8.8 16.2
13:15 1021 30.15 850 25.1 7.7 45.9 32 -8.1 17.5
13:20 1021 30.15 850 25.1 7.5 45.5 31 -8.4 16.9
13:25 1021 30.15 850 25.1 7.9 46.2 30 -8.8 16.2
13:30 1021 30.15 850 25.1 8.3 47 29 -8.7 16.4
13:35 1021 30.15 850 25.1 8.1 46.6 30 -8.2 17.2
13:40 1021 30.15 850 25.1 8.1 46.5 28 -9.4 15.1
13:45 1020 30.12 850 25.1 8.1 46.5 29 -9.1 15.7
13:50 1021 30.15 850 25.1 8.3 47 29 -8.9 16
13:55 1020 30.12 850 25.1 7.8 46 30 -8.9 16
14:00 1020 30.12 850 25.1 7.9 46.2 29 -9.3 15.2
14:05 1020 30.12 849 25.07 7.9 46.2 28 -9.4 15
14:10 1020 30.12 849 25.07 7.9 46.3 25 -10.7 12.7
14:15 1020 30.12 849 25.07 8.1 46.5 25 -10.9 12.4
14:20 1020 30.12 849 25.07 8 46.3 26 -10.5 13
14:25 1020 30.12 849 25.07 8.4 47.2 26 -10.2 13.6
14:30 1020 30.12 849 25.07 9.1 48.3 24 -10.6 12.9
14:35 1020 30.12 849 25.07 9.1 48.4 24 -10.2 13.6
14:40 1020 30.12 849 25.07 9.1 48.3 25 -10 14
14:45 1020 30.12 849 25.07 9.1 48.3 25 -9.7 14.5
14:50 1020 30.12 849 25.07 8.4 47.1 26 -9.8 14.3
14:55 1019 30.09 849 25.07 8.3 46.9 26 -10 13.9
15:00 1019 30.09 849 25.07 8.3 46.9 28 -9.3 15.2
15:05 1019 30.09 849 25.07 8.2 46.7 27 -9.7 14.6
15:10 1019 30.09 849 25.07 8.4 47.1 26 -9.9 14.2
15:15 1019 30.09 849 25.07 8.3 46.9 28 -9.3 15.3
15:20 1019 30.09 849 25.07 8.2 46.7 29 -8.7 16.3
15:25 1019 30.09 849 25.07 8.3 46.9 28 -9.4 15.1
15:30 1020 30.12 849 25.07 8.7 47.7 27 -9.1 15.6
15:35 1020 30.12 849 25.07 8.6 47.4 29 -8.5 16.7
15:40 1020 30.12 849 25.07 8.3 47 30 -8.4 16.9
15:45 1020 30.12 849 25.07 7.9 46.1 38 -5.5 22
15:50 1020 30.12 849 25.07 6.4 43.5 39 -6.6 20.2
15:55 1020 30.12 849 25.07 6.1 43.1 39 -6.9 19.5
16:00 1020 30.12 849 25.07 6 42.9 39 -6.9 19.6
16:05 1020 30.12 849 25.07 6 42.9 39 -7 19.5
16:10 1020 30.12 849 25.07 6.1 43.1 40 -6.5 20.4
16:15 1020 30.12 849 25.07 6.1 43 38 -7.3 18.9
16:20 1020 30.12 849 25.07 6.1 43 38 -7 19.4
16:25 1020 30.12 849 25.07 5.6 42 40 -7 19.4
16:30 1020 30.12 849 25.07 5.2 41.4 41 -7 19.5
16:35 1020 30.12 849 25.07 5 40.9 42 -7 19.3
16:40 1020 30.12 849 25.07 4.5 40.2 43 -7.1 19.2
16:45 1020 30.12 849 25.07 4.1 39.3 43 -7.3 18.9
16:50 1020 30.12 849 25.07 3.7 38.7 46 -6.9 19.5
16:55 1020 30.12 849 25.07 3.4 38.2 47 -6.8 19.7
17:00 1020 30.12 849 25.07 3.2 37.8 47 -6.9 19.6
17:05 1020 30.12 849 25.07 3.2 37.7 46 -7.2 19
17:10 1020 30.12 849 25.07 3.3 37.9 45 -7.5 18.5
17:15 1020 30.12 849 25.07 3.3 37.9 46 -7.3 18.9
17:20 1020 30.12 849 25.07 3 37.4 48 -7 19.3
17:25 1019 30.09 849 25.07 2.6 36.6 49 -7 19.5
17:30 1019 30.09 849 25.07 2.4 36.3 50 -7 19.4
17:35 1019 30.09 849 25.07 2.4 36.3 49 -7.2 19.1
17:40 1019 30.09 849 25.07 2.3 36.2 49 -7.3 18.9
17:45 1019 30.09 849 25.07 2.3 36.1 50 -7.1 19.3
17:50 1019 30.09 849 25.07 1.8 35.3 51 -7.1 19.2
17:55 1019 30.09 849 25.07 1.8 35.2 52 -7.2 19.1
18:00 1020 30.12 849 25.07 1.8 35.3 51 -7.3 18.9
18:05 1020 30.12 849 25.07 1.9 35.3 50 -7.4 18.6
18:10 1020 30.12 849 25.07 1.8 35.3 51 -7.3 18.9
18:15 1019 30.09 849 25.07 1.7 35 51 -7.4 18.7
18:20 1019 30.09 849 25.07 1.5 34.7 52 -7.3 18.9
18:25 1019 30.09 849 25.07 1.5 34.6 52 -7.4 18.6
18:30 1019 30.09 849 25.07 1.2 34.2 52 -7.6 18.2
18:35 1019 30.09 849 25.07 1.4 34.5 50 -7.9 17.8
18:40 1019 30.09 848 25.04 1.7 35.1 49 -7.9 17.7
18:45 1019 30.09 849 25.07 1.9 35.4 46 -8.5 16.7
18:50 1019 30.09 848 25.04 2.2 35.9 48 -7.7 18.1
18:55 1019 30.09 848 25.04 1.8 35.3 48 -8 17.7
19:00 1019 30.09 848 25.04 1.8 35.2 49 -7.9 17.8
19:05 1019 30.09 848 25.04 1.5 34.7 49 -8.1 17.5
19:10 1019 30.09 848 25.04 1.2 34.2 50 -8.2 17.2
19:15 1019 30.09 848 25.04 1.4 34.6 48 -8.5 16.7
19:20 1019 30.09 848 25.04 1.6 34.8 48 -8.4 16.9
19:25 1019 30.09 848 25.04 1.5 34.7 49 -8.1 17.3
19:30 1019 30.09 848 25.04 1.3 34.4 50 -8 17.7
19:35 1019 30.09 848 25.04 1.3 34.4 46 -8.9 15.9
19:40 1019 30.09 848 25.04 2 35.5 48 -7.9 17.8
19:45 1019 30.09 848 25.04 1.2 34.2 49 -8.3 17
19:50 1019 30.09 848 25.04 0.9 33.6 49 -8.6 16.6
19:55 1019 30.09 848 25.04 0.9 33.6 50 -8.5 16.8
20:00 1019 30.09 848 25.04 0.6 33 49 -8.8 16.1
20:05 1019 30.09 848 25.04 0.6 33 50 -8.7 16.3
20:10 1019 30.09 848 25.04 0.5 32.8 51 -8.6 16.6
20:15 1019 30.09 848 25.04 0 32.1 52 -8.6 16.5
20:20 1019 30.09 848 25.04 -0.1 31.9 50 -9.2 15.5
20:25 1019 30.09 848 25.04 0.3 32.6 48 -9.4 15.2
20:30 1019 30.09 848 25.04 0.9 33.6 45 -9.7 14.5
20:35 1019 30.09 848 25.04 1.7 35 43 -9.5 14.8
20:40 1019 30.09 848 25.04 1.6 35 48 -8.3 17
20:45 1019 30.09 848 25.04 0.7 33.3 47 -9.4 15.1
20:50 1019 30.09 848 25.04 1.3 34.4 46 -9.1 15.5
20:55 1019 30.09 848 25.04 0.5 32.9 52 -8.3 17.1
21:00 1019 30.09 848 25.04 -0.2 31.7 51 -9.1 15.6
21:05 1019 30.09 848 25.04 0.1 32.2 47 -10 14
21:10 1019 30.09 848 25.04 0.7 33.2 47 -9.3 15.2
21:15 1019 30.09 848 25.04 0.7 33.2 46 -9.6 14.8
21:20 1019 30.09 848 25.04 0.8 33.4 45 -9.8 14.4
21:25 1019 30.09 848 25.04 0.5 32.9 49 -9 15.9
21:30 1019 30.09 848 25.04 -0.4 31.3 50 -9.6 14.7
21:35 1019 30.09 848 25.04 -0.4 31.3 51 -9.4 15.2
21:40 1019 30.09 848 25.04 -0.1 31.9 48 -9.7 14.5
21:45 1019 30.09 848 25.04 0.3 32.6 47 -9.7 14.5
21:50 1019 30.09 848 25.04 0.4 32.7 47 -9.5 14.8
21:55 1019 30.09 848 25.04 0.1 32.2 48 -9.6 14.7
22:00 1019 30.09 848 25.04 -0.1 31.8 50 -9.3 15.3
22:05 1019 30.09 848 25.04 -1 30.2 52 -9.6 14.6
22:10 1019 30.09 848 25.04 -0.8 30.6 49 -10.3 13.4
22:15 1019 30.09 849 25.07 -0.3 31.5 48 -9.9 14.2
22:20 1019 30.09 849 25.07 -0.6 31 50 -9.7 14.5
22:25 1019 30.09 849 25.07 -0.9 30.4 51 -9.9 14.3
22:30 1019 30.09 849 25.07 -1.1 30.1 52 -9.8 14.4
22:35 1019 30.09 849 25.07 -0.9 30.5 51 -9.8 14.4
22:40 1020 30.12 849 25.07 -0.4 31.4 47 -10.3 13.5
22:45 1020 30.12 849 25.07 0.5 32.8 45 -10 13.9
22:50 1020 30.12 849 25.07 0.2 32.3 47 -9.9 14.2
22:55 1020 30.12 849 25.07 0.2 32.4 44 -10.6 13
23:00 1020 30.12 849 25.07 0.7 33.3 43 -10.4 13.3
23:05 1020 30.12 849 25.07 1.1 33.9 41 -10.7 12.8
23:10 1020 30.12 849 25.07 1.2 34.1 42 -10.4 13.3
23:15 1020 30.12 849 25.07 0.8 33.4 43 -10.4 13.2
23:20 1020 30.12 849 25.07 0.8 33.4 44 -10.1 13.8
23:25 1020 30.12 849 25.07 0.5 32.9 45 -10.2 13.6
23:30 1020 30.12 849 25.07 0.1 32.2 46 -10.1 13.8
23:35 1019 30.09 849 25.07 -0 31.9 46 -10.3 13.5
23:40 1019 30.09 849 25.07 -0.2 31.7 47 -10.2 13.6
23:45 1019 30.09 849 25.07 -0.4 31.3 49 -9.9 14.1
23:50 1019 30.09 849 25.07 -0.2 31.6 48 -10 13.9
23:55 1019 30.09 849 25.07 -0.4 31.3 48 -10.1 13.9
24:00 1019 30.09 849 25.07 -0.7 30.8 49 -10.1 13.8